Terminal Aerodrome Forecast
Issued by NWS Bismarck, ND

Home | Current Version | Previous Version | Text Only | Print | Product List | Glossary On
Versions: 1 2 3 4 5 6 7 8 9 10 11 12 13 14 15 16 17 18 19 20
092
FTUS43 KBIS 110644 AAA
TAFISN
TAF AMD
KISN 110644Z 1107/1206 14006KT 6SM -SN OVC035
     FM110800 06004KT 6SM -SN OVC020
     FM111000 VRB03KT P6SM -SN OVC025
     FM111200 04004KT P6SM OVC025
     FM111700 26006KT P6SM BKN025
     FM120300 31004KT P6SM VCSH OVC035=

USA.gov is the U.S. government's official web portal to all federal, state and local government web resources and services.